logo tempoitalia

Diretta Meteo Kyiv, Ucrainasabato 28 marzo ore 22:00

Mappa
Sereno 8 °C Sereno 24 Ore: T.min 6 T.max 18
Ponente Est Km/h 10.8 Punto di rugiada: -6 °C Umidità: 36% Visibilità: 10 Km
Il sole sorge alle: 05:39 Il sole tramonta alle: 18:26
28 Marzo 2020 22:00 tempo osservato: Sereno Sereno 8 36 1011 vento: Nord E 10.8
28 Marzo 2020 21:30 tempo osservato: Sereno Sereno 8 33 1011 vento: Nord N 7.2
28 Marzo 2020 21:00 tempo osservato: Sereno Sereno 9 31 1011 vento: Nord N 7.2
28 Marzo 2020 20:30 tempo osservato: Sereno Sereno 8 33 1011 vento: Nord N 7.2
28 Marzo 2020 20:00 tempo osservato: Sereno Sereno 8 33 1011 vento: Nord N 3.6
28 Marzo 2020 19:30 tempo osservato: Sereno Sereno 12 22 1011 vento: Nord N 7.2
28 Marzo 2020 19:00 tempo osservato: Sereno Sereno 12 20 1011 vento: Nord N 7.2
28 Marzo 2020 18:30 tempo osservato: Sereno Sereno 14 17 1011 vento: Nord N 7.2
28 Marzo 2020 17:00 tempo osservato: Sereno Sereno 17 13 1012 vento: Nord E 18
28 Marzo 2020 16:30 tempo osservato: Sereno Sereno 18 12 1012 vento: Nord E/SE 18
28 Marzo 2020 15:30 tempo osservato: Sereno Sereno 18 16 1013 vento: Nord E 25.2
28 Marzo 2020 15:00 tempo osservato: Sereno Sereno 18 14 1013 vento: Nord E 18
28 Marzo 2020 14:30 tempo osservato: Sereno Sereno 17 20 1013 vento: Nord E/NE 21.6
28 Marzo 2020 14:00 tempo osservato: Sereno Sereno 17 21 1014 vento: Nord E/NE 21.6
28 Marzo 2020 13:30 tempo osservato: Sereno Sereno 16 24 1014 vento: Nord E 21.6
28 Marzo 2020 13:00 tempo osservato: Sereno Sereno 16 24 1015 vento: Nord E/NE 25.2
28 Marzo 2020 12:30 tempo osservato: Sereno Sereno 14 28 1015 vento: Nord E/NE 14.4
28 Marzo 2020 12:00 tempo osservato: Sereno Sereno 14 28 1016 vento: Nord E/NE 18
28 Marzo 2020 11:30 tempo osservato: Sereno Sereno 13 30 1016 vento: Nord E 18
28 Marzo 2020 11:00 tempo osservato: Sereno Sereno 13 30 1017 vento: Nord E 18
28 Marzo 2020 10:30 tempo osservato: Sereno Sereno 12 30 1017 vento: Nord E/NE 10.8
28 Marzo 2020 10:00 tempo osservato: Sereno Sereno 11 34 1018 vento: Nord E 14.4
28 Marzo 2020 09:30 tempo osservato: Sereno Sereno 11 32 1018 vento: Nord E 14.4
28 Marzo 2020 09:00 tempo osservato: Sereno Sereno 10 34 1018 vento: Nord E 18
28 Marzo 2020 08:30 tempo osservato: Sereno Sereno 9 36 1018 vento: Nord E 18
28 Marzo 2020 08:00 tempo osservato: Sereno Sereno 9 33 1018 vento: Nord E 21.6
28 Marzo 2020 07:30 tempo osservato: Sereno Sereno 8 36 1018 vento: Nord E 18
28 Marzo 2020 07:00 tempo osservato: Sereno Sereno 8 39 1019 vento: Nord E 14.4
28 Marzo 2020 06:30 tempo osservato: Sereno Sereno 7 42 1019 vento: Nord E 14.4
28 Marzo 2020 06:00 tempo osservato: Sereno Sereno 7 38 1019 vento: Nord E 14.4
28 Marzo 2020 05:30 tempo osservato: Sereno Sereno 6 45 1019 vento: Nord E 14.4
28 Marzo 2020 05:00 tempo osservato: Sereno Sereno 6 45 1019 vento: Nord E 14.4
28 Marzo 2020 04:30 tempo osservato: Sereno Sereno 6 41 1019 vento: Nord E 14.4
28 Marzo 2020 04:00 tempo osservato: Sereno Sereno 7 38 1019 vento: Nord E 14.4
28 Marzo 2020 03:30 tempo osservato: Sereno Sereno 6 45 1020 vento: Nord E 14.4
28 Marzo 2020 03:00 tempo osservato: Sereno Sereno 6 45 1020 vento: Nord E 14.4
28 Marzo 2020 02:30 tempo osservato: Sereno Sereno 7 38 1020 vento: Nord E 14.4
28 Marzo 2020 02:00 tempo osservato: Sereno Sereno 7 42 1020 vento: Nord E/NE 14.4
28 Marzo 2020 01:30 tempo osservato: Sereno Sereno 7 42 1021 vento: Nord E 10.8
28 Marzo 2020 01:00 tempo osservato: Sereno Sereno 7 42 1021 vento: Nord E/NE 10.8
28 Marzo 2020 00:30 tempo osservato: Sereno Sereno 8 39 1021 vento: Nord E 10.8
28 Marzo 2020 00:00 tempo osservato: Sereno Sereno 9 33 1021 vento: Nord E 10.8
27 Marzo 2020 23:30 tempo osservato: Sereno Sereno 9 31 1022 vento: Nord N 7.2
27 Marzo 2020 23:00 tempo osservato: Sereno Sereno 10 27 1022 vento: Nord N 7.2
27 Marzo 2020 22:30 tempo osservato: Sereno Sereno 11 23 1022 vento: Nord N 7.2
27 Marzo 2020 22:00 tempo osservato: Sereno Sereno 11 25 1023 vento: Nord N 7.2